Time;durP1;ratioP1;P1;durP2;ratioP2;P2;SDS_P1;SDS_P2;PMS_P1;PMS_P2;Temp;Humidity;BMP_temperature;BMP_pressure;BME280_temperature;BME280_humidity;BME280_pressure;Samples;Min_cycle;Max_cycle;Signal;HPM_P1;HPM_P2
2023/07/30 00:01:41;;;;;;;35.13;8.25;;;15.20;99.90;;;;;;5133433;27;20142;-59
2023/07/30 00:04:07;;;;;;;24.27;7.50;;;15.30;99.90;;;;;;5132332;27;20871;-60
2023/07/30 00:06:33;;;;;;;30.75;8.10;;;15.20;99.90;;;;;;5113392;27;20047;-60
2023/07/30 00:08:59;;;;;;;20.80;7.32;;;15.40;99.90;;;;;;5132042;27;20054;-60
2023/07/30 00:11:24;;;;;;;20.90;7.63;;;15.50;99.90;;;;;;5132989;27;20471;-59
2023/07/30 00:13:50;;;;;;;30.25;8.15;;;15.40;99.90;;;;;;5131699;27;20906;-60
2023/07/30 00:16:16;;;;;;;30.67;7.68;;;15.30;99.90;;;;;;5131813;27;20046;-60
2023/07/30 00:18:41;;;;;;;28.15;7.72;;;14.00;99.90;;;;;;5132841;27;20039;-59
2023/07/30 00:21:07;;;;;;;31.00;8.13;;;15.30;99.90;;;;;;5131225;27;20122;-60
2023/07/30 00:23:33;;;;;;;27.58;7.90;;;15.40;99.90;;;;;;5131889;27;20526;-60
2023/07/30 00:25:59;;;;;;;23.80;7.60;;;15.30;99.90;;;;;;5131136;27;20134;-60
2023/07/30 00:28:24;;;;;;;30.85;8.10;;;15.40;99.90;;;;;;5131681;27;20046;-59
2023/07/30 00:30:50;;;;;;;28.10;8.07;;;15.40;99.90;;;;;;5131661;27;20071;-60
2023/07/30 00:33:16;;;;;;;34.58;8.82;;;15.40;99.90;;;;;;5113133;27;20070;-60
2023/07/30 00:35:41;;;;;;;28.25;7.40;;;15.40;99.90;;;;;;5098179;27;20065;-60
2023/07/30 00:38:07;;;;;;;30.48;7.80;;;15.40;99.90;;;;;;5132044;27;20091;-60
2023/07/30 00:40:33;;;;;;;32.22;8.95;;;15.20;99.90;;;;;;5132407;27;20064;-60
2023/07/30 00:42:59;;;;;;;29.67;9.15;;;15.30;99.90;;;;;;5131719;27;20047;-60
2023/07/30 00:45:24;;;;;;;27.63;8.02;;;15.30;99.90;;;;;;5113839;27;20035;-60
2023/07/30 00:47:50;;;;;;;34.83;8.32;;;15.20;99.90;;;;;;5132368;27;20069;-60
2023/07/30 00:50:17;;;;;;;29.52;8.35;;;15.20;99.90;;;;;;5132390;27;20038;-60
2023/07/30 00:52:43;;;;;;;26.23;7.72;;;15.10;99.90;;;;;;5133203;27;20042;-60
2023/07/30 00:55:09;;;;;;;25.05;8.30;;;15.20;99.90;;;;;;5133093;27;20073;-60
2023/07/30 00:57:36;;;;;;;29.02;8.70;;;15.20;99.90;;;;;;5134279;27;20058;-60
2023/07/30 01:00:05;;;;;;;27.85;8.10;;;15.20;99.90;;;;;;5113792;27;20376;-60
2023/07/30 01:02:35;;;;;;;27.40;9.38;;;14.90;99.90;;;;;;5132875;27;20070;-60
2023/07/30 01:05:03;;;;;;;31.55;9.18;;;15.30;99.90;;;;;;5132912;27;20521;-60
2023/07/30 01:07:29;;;;;;;31.08;9.07;;;15.30;99.90;;;;;;5131522;27;20042;-60
2023/07/30 01:09:54;;;;;;;33.03;9.07;;;15.20;99.90;;;;;;5113586;27;20055;-61
2023/07/30 01:12:21;;;;;;;20.38;7.65;;;15.30;99.90;;;;;;5133986;27;20347;-60
2023/07/30 01:14:49;;;;;;;29.48;8.77;;;15.40;99.90;;;;;;5131918;27;20038;-60
2023/07/30 01:17:15;;;;;;;30.02;9.30;;;15.20;99.90;;;;;;5135265;27;20039;-60
2023/07/30 01:19:40;;;;;;;27.13;8.65;;;15.30;99.90;;;;;;5136801;27;20062;-60
2023/07/30 01:22:06;;;;;;;27.50;8.50;;;15.30;99.90;;;;;;5117885;27;20073;-61
2023/07/30 01:24:32;;;;;;;30.58;8.23;;;15.30;99.90;;;;;;5135896;27;20311;-60
2023/07/30 01:27:05;;;;;;;28.33;7.85;;;15.20;99.90;;;;;;5135763;27;20495;-60
2023/07/30 01:29:56;;;;;;;24.33;7.97;;;15.20;99.90;;;;;;5112801;27;20050;-60
2023/07/30 01:32:27;;;;;;;24.13;8.77;;;15.20;99.90;;;;;;5135523;27;20067;-60
2023/07/30 01:34:55;;;;;;;23.90;7.53;;;15.40;99.90;;;;;;5134228;27;20453;-60
2023/07/30 01:37:22;;;;;;;24.85;8.23;;;15.30;99.90;;;;;;5116605;27;21102;-60
2023/07/30 01:39:49;;;;;;;27.38;7.90;;;15.40;99.90;;;;;;5136051;27;20429;-60
2023/07/30 01:42:16;;;;;;;33.22;9.65;;;14.00;99.90;;;;;;5107227;27;20045;-60
2023/07/30 01:44:42;;;;;;;29.33;8.45;;;15.40;99.90;;;;;;5134119;27;20499;-60
2023/07/30 01:47:07;;;;;;;26.05;7.57;;;15.30;99.90;;;;;;5135436;27;20042;-60
2023/07/30 01:49:33;;;;;;;29.38;7.38;;;15.60;99.90;;;;;;5135024;27;20039;-60
2023/07/30 01:51:59;;;;;;;25.80;8.32;;;15.50;99.90;;;;;;5134913;27;20042;-60
2023/07/30 01:54:25;;;;;;;24.63;7.25;;;15.60;99.90;;;;;;5134378;27;20525;-60
2023/07/30 01:56:50;;;;;;;24.27;6.97;;;15.60;99.90;;;;;;5134328;27;20043;-62
2023/07/30 01:59:16;;;;;;;25.42;7.80;;;15.50;99.90;;;;;;5134762;27;20119;-61
2023/07/30 02:01:43;;;;;;;26.52;7.43;;;15.50;99.90;;;;;;5134892;27;20445;-60
2023/07/30 02:04:08;;;;;;;27.10;7.82;;;15.50;99.90;;;;;;5135896;27;20064;-61
2023/07/30 02:06:34;;;;;;;24.05;7.07;;;15.70;99.90;;;;;;5135650;27;20034;-61
2023/07/30 02:09:00;;;;;;;26.40;7.47;;;15.70;99.90;;;;;;5135133;27;20050;-60
2023/07/30 02:11:26;;;;;;;28.20;7.85;;;15.50;99.90;;;;;;5119030;27;20043;-61
2023/07/30 02:13:52;;;;;;;26.65;7.25;;;15.50;99.90;;;;;;5136007;27;20047;-61
2023/07/30 02:16:17;;;;;;;31.23;7.13;;;15.50;99.90;;;;;;5134958;27;20027;-61
2023/07/30 02:18:44;;;;;;;26.63;7.47;;;15.60;99.90;;;;;;5135400;27;20605;-61
2023/07/30 02:21:10;;;;;;;23.17;6.88;;;15.50;99.90;;;;;;5136121;27;20058;-60
2023/07/30 02:23:35;;;;;;;24.98;7.38;;;15.50;99.90;;;;;;5137283;27;20353;-61
2023/07/30 02:26:01;;;;;;;24.17;6.95;;;15.40;99.90;;;;;;5135467;27;20098;-60
2023/07/30 02:28:27;;;;;;;29.55;6.93;;;15.40;99.90;;;;;;5133596;27;20573;-60
2023/07/30 02:30:52;;;;;;;28.45;7.30;;;15.40;99.90;;;;;;5135633;27;20039;-61
2023/07/30 02:33:18;;;;;;;29.95;7.78;;;15.20;99.90;;;;;;5134294;27;20542;-61
2023/07/30 02:35:44;;;;;;;28.48;7.30;;;15.40;99.90;;;;;;5133921;27;20137;-61
2023/07/30 02:38:10;;;;;;;30.48;7.90;;;15.10;99.90;;;;;;5135582;27;20043;-61
2023/07/30 02:40:36;;;;;;;25.60;7.78;;;15.20;99.90;;;;;;5134938;27;20039;-61
2023/07/30 02:43:01;;;;;;;26.92;6.85;;;15.10;99.90;;;;;;5133949;27;20039;-61
2023/07/30 02:45:27;;;;;;;33.65;8.15;;;15.20;99.90;;;;;;5134103;27;20466;-61
2023/07/30 02:47:53;;;;;;;29.00;7.30;;;15.20;99.90;;;;;;5114906;27;20050;-61
2023/07/30 02:50:18;;;;;;;26.48;6.68;;;15.10;99.90;;;;;;5134316;27;20055;-61
2023/07/30 02:52:44;;;;;;;26.73;6.63;;;15.20;99.90;;;;;;5135431;27;20047;-61
2023/07/30 02:55:10;;;;;;;32.20;6.93;;;15.20;99.90;;;;;;5133323;27;20483;-61
2023/07/30 02:57:36;;;;;;;26.98;6.97;;;15.20;99.90;;;;;;5134015;27;20041;-60
2023/07/30 03:00:03;;;;;;;28.02;7.25;;;15.10;99.90;;;;;;5133170;27;20513;-61
2023/07/30 03:02:29;;;;;;;27.77;7.65;;;15.10;99.90;;;;;;5132976;27;20047;-61
2023/07/30 03:04:55;;;;;;;26.35;7.40;;;14.90;99.90;;;;;;5133079;27;20039;-61
2023/07/30 03:07:20;;;;;;;30.52;6.90;;;14.90;99.90;;;;;;5134005;27;20050;-60
2023/07/30 03:09:46;;;;;;;35.03;7.30;;;15.00;99.90;;;;;;5133821;27;20412;-61
2023/07/30 03:12:12;;;;;;;32.47;6.18;;;15.10;99.90;;;;;;5135510;27;20077;-61
2023/07/30 03:14:38;;;;;;;24.65;6.35;;;15.00;99.90;;;;;;5115216;27;20035;-61
2023/07/30 03:17:04;;;;;;;29.23;7.18;;;15.10;99.90;;;;;;5133246;27;20039;-61
2023/07/30 03:19:30;;;;;;;24.60;6.20;;;15.00;99.90;;;;;;5133587;27;20058;-61
2023/07/30 03:21:56;;;;;;;30.25;6.97;;;14.90;99.90;;;;;;5133469;27;20059;-61
2023/07/30 03:24:22;;;;;;;31.27;7.68;;;14.90;99.90;;;;;;5135675;27;20054;-61
2023/07/30 03:26:48;;;;;;;33.03;6.93;;;14.90;99.90;;;;;;5135449;27;20320;-61
2023/07/30 03:29:14;;;;;;;39.55;7.72;;;14.80;99.90;;;;;;5135544;27;20064;-61
2023/07/30 03:31:40;;;;;;;27.35;7.30;;;15.00;99.90;;;;;;5135929;27;20042;-61
2023/07/30 03:34:05;;;;;;;36.28;7.88;;;15.10;99.90;;;;;;5133812;27;20043;-61
2023/07/30 03:36:31;;;;;;;31.67;7.38;;;15.10;99.90;;;;;;5135136;27;20035;-61
2023/07/30 03:38:57;;;;;;;29.15;6.50;;;14.90;99.90;;;;;;5135751;27;20042;-61
2023/07/30 03:41:23;;;;;;;28.33;7.35;;;15.00;99.90;;;;;;5135813;27;20070;-61
2023/07/30 03:43:48;;;;;;;31.60;7.22;;;15.00;99.90;;;;;;5134137;27;20186;-61
2023/07/30 03:46:14;;;;;;;31.98;7.10;;;14.80;99.90;;;;;;5133418;27;20034;-61
2023/07/30 03:48:40;;;;;;;30.92;6.57;;;14.90;99.90;;;;;;5135043;27;20051;-61
2023/07/30 03:51:07;;;;;;;32.55;7.18;;;15.10;99.90;;;;;;5133627;27;20047;-61
2023/07/30 03:53:33;;;;;;;28.65;6.85;;;14.80;99.90;;;;;;5113701;27;20027;-61
2023/07/30 03:55:59;;;;;;;30.13;6.80;;;14.80;99.90;;;;;;5132830;27;20135;-61
2023/07/30 03:58:24;;;;;;;34.13;7.10;;;15.00;99.90;;;;;;5133623;27;20046;-61
2023/07/30 04:00:50;;;;;;;31.50;6.75;;;14.90;99.90;;;;;;5132635;27;20130;-62
2023/07/30 04:03:16;;;;;;;28.25;6.78;;;14.80;99.90;;;;;;5132549;27;20098;-61
2023/07/30 04:05:41;;;;;;;27.10;6.78;;;14.80;99.90;;;;;;5133267;27;20067;-61
2023/07/30 04:08:07;;;;;;;32.15;7.13;;;14.80;99.90;;;;;;5132659;27;20070;-61
2023/07/30 04:10:33;;;;;;;30.67;6.88;;;15.00;99.90;;;;;;5131620;27;20053;-61
2023/07/30 04:12:59;;;;;;;29.75;6.30;;;14.90;99.90;;;;;;5133076;27;20054;-61
2023/07/30 04:15:25;;;;;;;27.10;6.70;;;14.80;99.90;;;;;;5134516;27;20046;-61
2023/07/30 04:17:51;;;;;;;34.97;7.28;;;15.00;99.90;;;;;;5132444;27;20039;-61
2023/07/30 04:20:17;;;;;;;28.27;6.78;;;14.90;99.90;;;;;;5130685;27;20076;-61
2023/07/30 04:22:44;;;;;;;36.97;6.82;;;15.10;99.90;;;;;;5132020;27;20072;-61
2023/07/30 04:25:13;;;;;;;23.27;6.22;;;15.00;99.90;;;;;;5131369;27;20043;-61
2023/07/30 04:27:38;;;;;;;32.97;6.85;;;15.00;99.90;;;;;;5131118;27;20125;-61
2023/07/30 04:30:06;;;;;;;23.48;6.55;;;15.00;99.90;;;;;;5132747;27;20054;-61
2023/07/30 04:32:31;;;;;;;23.98;5.75;;;15.00;99.90;;;;;;5111597;27;20073;-61
2023/07/30 04:34:57;;;;;;;26.83;5.75;;;15.00;99.90;;;;;;5131123;27;20248;-61
2023/07/30 04:37:23;;;;;;;28.55;5.65;;;15.20;99.90;;;;;;5114000;27;20314;-61
2023/07/30 04:39:49;;;;;;;28.90;5.38;;;15.40;99.90;;;;;;5130979;27;20052;-61
2023/07/30 04:42:15;;;;;;;27.75;5.95;;;15.20;99.90;;;;;;5132827;27;20102;-61
2023/07/30 04:44:41;;;;;;;21.90;5.03;;;15.40;99.90;;;;;;5133030;27;20498;-61
2023/07/30 04:47:07;;;;;;;22.90;5.05;;;15.70;99.90;;;;;;5132939;27;20449;-61
2023/07/30 04:49:33;;;;;;;22.40;4.53;;;15.50;99.90;;;;;;5132141;27;20133;-61
2023/07/30 04:51:59;;;;;;;16.00;3.90;;;15.50;99.90;;;;;;5132005;27;20710;-60
2023/07/30 04:54:25;;;;;;;16.88;4.07;;;17.70;99.90;;;;;;5132465;27;20612;-61
2023/07/30 04:56:51;;;;;;;20.27;4.82;;;15.60;99.90;;;;;;5132367;27;20940;-62
2023/07/30 04:59:16;;;;;;;15.57;3.95;;;15.70;99.90;;;;;;5115281;27;20023;-62
2023/07/30 05:01:42;;;;;;;16.20;3.25;;;15.70;99.90;;;;;;5114383;27;20125;-62
2023/07/30 05:04:08;;;;;;;19.70;3.60;;;15.50;99.90;;;;;;5133590;27;20081;-62
2023/07/30 05:06:33;;;;;;;20.45;4.03;;;15.50;99.90;;;;;;5133511;27;20046;-62
2023/07/30 05:08:59;;;;;;;14.55;3.35;;;15.80;99.90;;;;;;5131974;27;20047;-62
2023/07/30 05:11:25;;;;;;;13.25;3.10;;;15.70;99.90;;;;;;5131484;27;20055;-62
2023/07/30 05:13:50;;;;;;;18.73;3.55;;;15.60;99.90;;;;;;5131978;27;20079;-62
2023/07/30 05:16:16;;;;;;;15.80;3.50;;;15.80;99.90;;;;;;5130570;27;20046;-62
2023/07/30 05:18:42;;;;;;;16.70;3.50;;;15.80;99.90;;;;;;5130524;27;20117;-62
2023/07/30 05:21:08;;;;;;;16.05;3.20;;;15.90;99.90;;;;;;5108225;27;20050;-62
2023/07/30 05:23:33;;;;;;;16.90;3.40;;;15.90;99.90;;;;;;5114483;27;20449;-62
2023/07/30 05:25:59;;;;;;;19.48;4.10;;;15.90;99.90;;;;;;5130334;27;20042;-62
2023/07/30 05:28:25;;;;;;;21.02;4.30;;;16.10;99.90;;;;;;5131067;27;20165;-61
2023/07/30 05:30:51;;;;;;;17.45;4.78;;;16.10;99.90;;;;;;5103369;27;20085;-62
2023/07/30 05:33:16;;;;;;;15.77;4.40;;;15.40;99.90;;;;;;5131834;27;20096;-62
2023/07/30 05:35:42;;;;;;;19.13;4.57;;;16.10;99.90;;;;;;5131393;27;20045;-62
2023/07/30 05:38:08;;;;;;;20.92;4.20;;;16.40;99.90;;;;;;5131219;27;20038;-62
2023/07/30 05:40:35;;;;;;;17.08;3.83;;;16.10;99.90;;;;;;5132672;27;20436;-62
2023/07/30 05:43:00;;;;;;;20.58;3.58;;;16.20;99.90;;;;;;5132791;27;20876;-62
2023/07/30 05:45:26;;;;;;;20.00;3.95;;;16.10;99.90;;;;;;5130823;27;20130;-62
2023/07/30 05:47:52;;;;;;;19.70;3.83;;;16.50;99.90;;;;;;5130417;27;20047;-63
2023/07/30 05:50:18;;;;;;;19.77;4.40;;;16.40;99.90;;;;;;5130502;27;20127;-62
2023/07/30 05:52:44;;;;;;;15.73;3.50;;;16.30;99.90;;;;;;5096084;27;20084;-62
2023/07/30 05:55:09;;;;;;;12.25;3.30;;;16.40;99.90;;;;;;5130420;27;20046;-62
2023/07/30 05:57:36;;;;;;;16.40;3.20;;;16.30;99.90;;;;;;5112995;27;20039;-62
2023/07/30 06:00:02;;;;;;;16.65;3.20;;;16.60;99.90;;;;;;5113295;27;20047;-62
2023/07/30 06:02:28;;;;;;;23.58;3.75;;;16.30;99.90;;;;;;5133589;27;20489;-62
2023/07/30 06:04:54;;;;;;;18.15;3.67;;;16.60;99.90;;;;;;5134790;27;20042;-62
2023/07/30 06:07:19;;;;;;;14.93;3.45;;;16.60;99.90;;;;;;5136507;27;20135;-62
2023/07/30 06:09:45;;;;;;;14.90;3.30;;;16.70;99.90;;;;;;5135019;27;20051;-63
2023/07/30 06:12:11;;;;;;;15.82;3.65;;;16.50;99.90;;;;;;5117664;27;20257;-62
2023/07/30 06:14:36;;;;;;;16.02;3.03;;;16.70;99.90;;;;;;5134895;27;20779;-63
2023/07/30 06:17:02;;;;;;;17.00;3.00;;;16.60;99.90;;;;;;5135185;27;22443;-63
2023/07/30 06:19:28;;;;;;;15.75;3.63;;;16.80;99.90;;;;;;5135422;27;20038;-62
2023/07/30 06:21:54;;;;;;;14.48;3.35;;;16.60;99.90;;;;;;5134221;27;20087;-63
2023/07/30 06:24:20;;;;;;;12.20;3.17;;;16.80;99.90;;;;;;5135520;27;20041;-62
2023/07/30 06:26:45;;;;;;;16.42;3.38;;;17.00;99.90;;;;;;5134454;27;20474;-62
2023/07/30 06:29:11;;;;;;;13.30;3.55;;;16.80;99.90;;;;;;5135207;27;20129;-63
2023/07/30 06:31:37;;;;;;;15.93;3.10;;;16.80;99.90;;;;;;5134034;27;20723;-62
2023/07/30 06:34:02;;;;;;;10.10;2.83;;;16.80;99.90;;;;;;5133959;27;20049;-62
2023/07/30 06:36:28;;;;;;;14.70;2.72;;;17.10;99.90;;;;;;5134338;27;20122;-62
2023/07/30 06:38:54;;;;;;;12.60;2.63;;;16.90;99.90;;;;;;5133153;27;20527;-63
2023/07/30 06:41:21;;;;;;;11.45;2.58;;;17.10;99.90;;;;;;5132444;27;20043;-62
2023/07/30 06:43:46;;;;;;;11.30;3.10;;;17.20;99.90;;;;;;5134536;27;20416;-62
2023/07/30 06:46:12;;;;;;;13.07;2.53;;;17.10;99.90;;;;;;5134729;27;20294;-63
2023/07/30 06:48:38;;;;;;;12.20;2.55;;;17.10;99.90;;;;;;5131699;27;20042;-62
2023/07/30 06:51:07;;;;;;;10.35;2.15;;;17.20;99.90;;;;;;5133883;27;20038;-62
2023/07/30 06:53:33;;;;;;;11.07;2.45;;;17.30;99.90;;;;;;5103557;27;20043;-62
2023/07/30 06:55:59;;;;;;;8.80;1.92;;;17.50;99.90;;;;;;5134611;27;20077;-62
2023/07/30 06:58:25;;;;;;;10.82;2.28;;;17.70;99.90;;;;;;5112906;27;20114;-63
2023/07/30 07:00:50;;;;;;;9.20;2.22;;;17.90;99.90;;;;;;5133813;27;20095;-62
2023/07/30 07:03:17;;;;;;;12.18;2.40;;;18.10;99.90;;;;;;5132850;27;20064;-62
2023/07/30 07:05:42;;;;;;;8.30;2.20;;;18.20;99.90;;;;;;5134600;27;20121;-63
2023/07/30 07:08:08;;;;;;;11.13;1.90;;;18.70;99.90;;;;;;5132260;27;20130;-63
2023/07/30 07:10:34;;;;;;;11.43;2.65;;;19.20;99.90;;;;;;5133183;27;20082;-63
2023/07/30 07:13:00;;;;;;;9.18;1.85;;;19.50;99.90;;;;;;5109389;27;20666;-64
2023/07/30 07:15:25;;;;;;;15.30;2.92;;;20.30;99.90;;;;;;5132821;27;20065;-63
2023/07/30 07:17:51;;;;;;;14.40;2.63;;;21.60;99.90;;;;;;5131484;27;20095;-63
2023/07/30 07:20:18;;;;;;;14.32;2.40;;;22.30;99.90;;;;;;5130728;27;20042;-64
2023/07/30 07:22:44;;;;;;;12.82;2.15;;;22.90;99.90;;;;;;5133777;27;20118;-63
2023/07/30 07:25:10;;;;;;;11.20;2.40;;;23.30;99.90;;;;;;5132513;27;20038;-65
2023/07/30 07:27:36;;;;;;;11.10;2.10;;;23.50;99.90;;;;;;5133795;27;20578;-64
2023/07/30 07:30:02;;;;;;;8.98;1.90;;;22.90;99.90;;;;;;5132340;27;20490;-64
2023/07/30 07:32:28;;;;;;;8.93;1.85;;;22.50;99.90;;;;;;5134883;27;20042;-64
2023/07/30 07:34:54;;;;;;;15.48;2.47;;;22.30;99.90;;;;;;5132851;27;20035;-65
2023/07/30 07:37:20;;;;;;;17.13;2.97;;;21.50;99.90;;;;;;5132907;27;20406;-65
2023/07/30 07:39:46;;;;;;;16.95;2.97;;;20.70;99.90;;;;;;5133290;27;20039;-64
2023/07/30 07:42:11;;;;;;;17.90;2.72;;;20.50;99.90;;;;;;5134215;27;20042;-64
2023/07/30 07:44:37;;;;;;;11.40;2.75;;;19.80;99.90;;;;;;5134131;27;20030;-65
2023/07/30 07:47:03;;;;;;;11.38;2.22;;;19.50;99.90;;;;;;5132766;27;20094;-63
2023/07/30 07:49:29;;;;;;;17.95;3.30;;;19.20;99.90;;;;;;5114909;27;20437;-62
2023/07/30 07:51:55;;;;;;;13.60;2.85;;;18.80;99.90;;;;;;5132274;27;20050;-62
2023/07/30 07:54:20;;;;;;;9.18;2.22;;;18.70;99.90;;;;;;5132678;27;20050;-62
2023/07/30 07:56:46;;;;;;;13.32;2.42;;;18.60;99.90;;;;;;5131749;27;21342;-63
2023/07/30 07:59:12;;;;;;;15.13;2.72;;;18.20;99.90;;;;;;5132567;27;20439;-62
2023/07/30 08:01:38;;;;;;;12.82;2.22;;;18.10;99.90;;;;;;5132545;27;20380;-64
2023/07/30 08:04:03;;;;;;;13.32;2.45;;;17.80;99.90;;;;;;5132678;27;20035;-63
2023/07/30 08:06:31;;;;;;;10.77;1.85;;;17.90;99.90;;;;;;5131956;27;20046;-61
2023/07/30 08:08:57;;;;;;;12.07;2.40;;;18.10;99.90;;;;;;5113141;27;20094;-61
2023/07/30 08:11:22;;;;;;;11.23;2.15;;;17.80;99.90;;;;;;5131011;27;20503;-62
2023/07/30 08:13:48;;;;;;;13.10;2.85;;;17.70;99.90;;;;;;5132031;27;20051;-63
2023/07/30 08:16:14;;;;;;;11.68;2.42;;;17.90;99.90;;;;;;5131128;27;20035;-59
2023/07/30 08:18:40;;;;;;;13.57;2.40;;;18.00;99.90;;;;;;5129997;27;20045;-61
2023/07/30 08:21:05;;;;;;;9.02;1.80;;;17.80;99.90;;;;;;5131216;27;20495;-59
2023/07/30 08:23:31;;;;;;;14.05;2.35;;;18.00;99.90;;;;;;5132972;27;20129;-60
2023/07/30 08:25:57;;;;;;;12.18;2.30;;;18.20;99.90;;;;;;5128910;27;20089;-59
2023/07/30 08:28:23;;;;;;;12.73;3.00;;;18.30;99.90;;;;;;5131375;27;20099;-60
2023/07/30 08:30:48;;;;;;;11.90;2.30;;;18.10;99.90;;;;;;5130971;27;20050;-59
2023/07/30 08:33:14;;;;;;;12.38;2.08;;;18.00;99.90;;;;;;5113206;27;20198;-59
2023/07/30 08:35:40;;;;;;;8.13;2.15;;;18.00;99.90;;;;;;5132179;27;20554;-59
2023/07/30 08:38:06;;;;;;;12.45;2.33;;;18.00;99.90;;;;;;5130926;27;20046;-59
2023/07/30 08:40:32;;;;;;;13.70;2.13;;;18.00;99.90;;;;;;5131728;27;20053;-59
2023/07/30 08:42:58;;;;;;;15.65;2.58;;;18.10;99.90;;;;;;5133792;27;20042;-59
2023/07/30 08:45:23;;;;;;;12.85;2.20;;;18.00;99.90;;;;;;5114557;27;20407;-57
2023/07/30 08:47:49;;;;;;;12.55;2.45;;;18.30;99.90;;;;;;5131958;27;20042;-60
2023/07/30 08:50:15;;;;;;;13.10;2.28;;;18.20;99.90;;;;;;5133015;27;20065;-59
2023/07/30 08:52:41;;;;;;;14.00;2.63;;;18.40;99.90;;;;;;5132265;27;20038;-59
2023/07/30 08:55:07;;;;;;;15.63;2.72;;;18.50;99.90;;;;;;5112910;27;20049;-60
2023/07/30 08:57:33;;;;;;;10.95;1.73;;;18.50;99.90;;;;;;5132230;27;20070;-58
2023/07/30 09:00:04;;;;;;;11.32;2.42;;;18.70;99.90;;;;;;5132772;27;20140;-59
2023/07/30 09:02:44;;;;;;;16.42;3.42;;;19.00;99.90;;;;;;5134264;27;20042;-58
2023/07/30 09:05:10;;;;;;;12.10;2.20;;;19.00;99.90;;;;;;5130491;27;20079;-58
2023/07/30 09:07:36;;;;;;;10.73;2.35;;;19.00;99.90;;;;;;5134802;27;20038;-57
2023/07/30 09:10:02;;;;;;;6.68;1.92;;;19.20;99.90;;;;;;5131605;27;20519;-58
2023/07/30 09:12:31;;;;;;;10.68;2.33;;;19.30;99.90;;;;;;5132933;27;20054;-58
2023/07/30 09:14:57;;;;;;;12.05;2.25;;;19.30;99.90;;;;;;5132745;27;20083;-59
2023/07/30 09:17:23;;;;;;;10.32;1.60;;;19.10;99.90;;;;;;5133600;27;20027;-58
2023/07/30 09:19:50;;;;;;;8.95;1.60;;;18.80;99.90;;;;;;5130986;27;20058;-57
2023/07/30 09:22:41;;;;;;;7.72;1.20;;;18.70;99.90;;;;;;5130322;27;20065;-58
2023/07/30 09:25:08;;;;;;;8.75;1.60;;;18.10;99.90;;;;;;5114314;27;20850;-58
2023/07/30 09:27:34;;;;;;;6.57;1.98;;;18.30;99.90;;;;;;5132550;27;20046;-58
2023/07/30 09:30:02;;;;;;;8.52;1.95;;;18.10;99.90;;;;;;5131495;27;20054;-59
2023/07/30 09:32:32;;;;;;;8.35;1.55;;;18.00;99.90;;;;;;5130965;27;20035;-58
2023/07/30 09:35:09;;;;;;;9.60;1.70;;;18.00;99.90;;;;;;5130177;27;20047;-59
2023/07/30 09:37:41;;;;;;;8.35;1.65;;;18.00;99.90;;;;;;5132105;27;20506;-58
2023/07/30 09:40:16;;;;;;;6.18;1.45;;;18.00;99.90;;;;;;5136478;27;20162;-59
2023/07/30 09:42:47;;;;;;;7.93;1.38;;;17.90;99.90;;;;;;5136851;27;20066;-58
2023/07/30 09:45:24;;;;;;;7.53;1.52;;;18.00;99.90;;;;;;5135995;27;20465;-57
2023/07/30 09:47:52;;;;;;;6.05;1.30;;;18.00;99.90;;;;;;5134649;27;20043;-58
2023/07/30 09:50:18;;;;;;;7.03;2.05;;;18.40;99.90;;;;;;5133283;27;20043;-59
2023/07/30 09:52:45;;;;;;;5.00;1.23;;;18.30;99.90;;;;;;5135706;27;20038;-60
2023/07/30 09:55:11;;;;;;;8.07;1.40;;;18.70;99.90;;;;;;5135528;27;20047;-59
2023/07/30 09:57:38;;;;;;;6.05;1.48;;;18.50;99.90;;;;;;5117666;27;20058;-58
2023/07/30 10:00:06;;;;;;;12.52;2.70;;;19.10;99.90;;;;;;5135203;27;20530;-59
2023/07/30 10:02:34;;;;;;;9.52;1.80;;;19.70;99.90;;;;;;5135832;27;20035;-58
2023/07/30 10:05:00;;;;;;;7.47;1.40;;;20.00;99.90;;;;;;5134140;27;20035;-58
2023/07/30 10:07:28;;;;;;;8.85;2.05;;;20.00;99.90;;;;;;5138141;27;20038;-59
2023/07/30 10:10:00;;;;;;;12.75;1.98;;;20.20;99.90;;;;;;5136417;27;20059;-59
2023/07/30 10:12:31;;;;;;;6.72;1.52;;;20.30;99.90;;;;;;5136414;27;20103;-59
2023/07/30 10:14:57;;;;;;;10.27;1.95;;;20.70;99.90;;;;;;5138328;27;20475;-59
2023/07/30 10:17:23;;;;;;;19.70;3.35;;;20.80;99.90;;;;;;5135845;27;20039;-57
2023/07/30 10:19:49;;;;;;;20.30;4.05;;;20.10;99.90;;;;;;5134936;27;20072;-57
2023/07/30 10:22:18;;;;;;;12.70;2.13;;;19.40;99.90;;;;;;5135699;27;20421;-58
2023/07/30 10:25:11;;;;;;;8.85;1.63;;;19.00;99.90;;;;;;5135100;27;20038;-57
2023/07/30 10:27:40;;;;;;;11.32;2.83;;;18.70;99.90;;;;;;5098639;27;20130;-57
2023/07/30 10:30:13;;;;;;;12.95;2.00;;;19.40;99.90;;;;;;5114468;27;20039;-59
2023/07/30 10:33:03;;;;;;;12.75;2.20;;;18.80;99.90;;;;;;5133833;27;20046;-57
2023/07/30 10:35:43;;;;;;;9.02;2.08;;;18.90;99.90;;;;;;5102425;27;20059;-58
2023/07/30 10:38:34;;;;;;;12.25;3.33;;;19.00;99.90;;;;;;5135114;27;20051;-58
2023/07/30 10:41:07;;;;;;;12.55;2.30;;;19.00;99.90;;;;;;5121074;27;20057;-59
2023/07/30 10:43:43;;;;;;;9.05;2.67;;;19.60;99.90;;;;;;5134591;27;20062;-60
2023/07/30 10:46:14;;;;;;;7.32;1.90;;;19.60;99.90;;;;;;5135211;27;20095;-59
2023/07/30 10:48:43;;;;;;;9.65;2.05;;;21.10;99.90;;;;;;5132763;27;20050;-59
2023/07/30 10:51:14;;;;;;;11.77;2.08;;;19.40;99.90;;;;;;5133222;27;20086;-58
2023/07/30 10:53:50;;;;;;;9.65;2.10;;;19.10;99.90;;;;;;5106033;27;20049;-58
2023/07/30 10:56:18;;;;;;;13.02;2.88;;;18.80;99.90;;;;;;5133416;27;20039;-56
2023/07/30 10:58:49;;;;;;;7.80;1.77;;;19.10;99.90;;;;;;5134782;27;20447;-57
2023/07/30 11:01:15;;;;;;;11.68;2.00;;;19.40;99.90;;;;;;5135647;27;20035;-58
2023/07/30 11:03:41;;;;;;;12.27;1.90;;;19.60;99.90;;;;;;5134733;27;20350;-57
2023/07/30 11:06:08;;;;;;;10.77;2.10;;;20.10;99.90;;;;;;5133815;27;20042;-57
2023/07/30 11:08:42;;;;;;;10.98;2.90;;;20.40;99.90;;;;;;5134305;27;20100;-58
2023/07/30 11:11:09;;;;;;;11.07;1.90;;;20.50;99.90;;;;;;5134457;27;20049;-58
2023/07/30 11:13:40;;;;;;;10.98;2.15;;;20.40;99.90;;;;;;5135074;27;20035;-59
2023/07/30 11:16:10;;;;;;;10.80;2.08;;;20.60;99.90;;;;;;5134549;27;20125;-57
2023/07/30 11:18:37;;;;;;;10.98;1.83;;;20.90;99.90;;;;;;5133776;27;20597;-57
2023/07/30 11:21:04;;;;;;;8.55;2.22;;;20.90;99.90;;;;;;5133379;27;20050;-58
2023/07/30 11:23:30;;;;;;;10.82;1.90;;;20.80;99.90;;;;;;5135606;27;20104;-58
2023/07/30 11:25:55;;;;;;;9.82;2.03;;;20.60;99.90;;;;;;5133697;27;20050;-58
2023/07/30 11:28:47;;;;;;;9.40;1.95;;;20.30;99.90;;;;;;5135411;27;20031;-57
2023/07/30 11:31:15;;;;;;;13.07;2.08;;;20.00;99.90;;;;;;5130764;27;20776;-57
2023/07/30 11:33:45;;;;;;;9.18;1.83;;;20.10;99.90;;;;;;5133554;27;20084;-57
2023/07/30 11:36:17;;;;;;;11.05;2.33;;;20.30;99.90;;;;;;5133855;27;20511;-57
2023/07/30 11:38:45;;;;;;;11.80;2.22;;;20.70;99.90;;;;;;5134633;27;20053;-57
2023/07/30 11:41:11;;;;;;;10.95;2.72;;;21.10;99.90;;;;;;5133437;27;20495;-57
2023/07/30 11:43:39;;;;;;;10.25;2.85;;;21.50;99.90;;;;;;5133268;27;20038;-58
2023/07/30 11:46:10;;;;;;;10.70;2.50;;;21.30;99.90;;;;;;5134952;27;20053;-58
2023/07/30 11:48:36;;;;;;;8.95;1.88;;;21.10;99.90;;;;;;5132856;27;20089;-57
2023/07/30 11:51:02;;;;;;;9.82;2.85;;;20.70;99.90;;;;;;5132474;27;20459;-57
2023/07/30 11:53:49;;;;;;;11.88;2.83;;;20.50;99.90;;;;;;5133080;27;20052;-57
2023/07/30 11:56:35;;;;;;;12.73;2.50;;;19.40;99.90;;;;;;5132646;27;20049;-58
2023/07/30 11:59:05;;;;;;;10.43;2.60;;;19.10;99.90;;;;;;5131329;27;20027;-55
2023/07/30 12:01:34;;;;;;;10.07;2.20;;;18.50;99.90;;;;;;5132439;27;20055;-57
2023/07/30 12:04:01;;;;;;;11.82;2.05;;;18.40;99.90;;;;;;5130825;27;20046;-57
2023/07/30 12:06:39;;;;;;;12.38;2.40;;;17.90;99.90;;;;;;5132024;27;20107;-57
2023/07/30 12:09:15;;;;;;;11.98;1.80;;;17.80;99.90;;;;;;5131567;27;20513;-58
2023/07/30 12:11:49;;;;;;;12.25;2.47;;;17.50;99.90;;;;;;5131164;27;20153;-57
2023/07/30 12:14:15;;;;;;;10.73;1.58;;;17.70;99.90;;;;;;5132948;27;20042;-57
2023/07/30 12:16:41;;;;;;;6.30;1.70;;;18.10;99.90;;;;;;5131936;27;20517;-59
2023/07/30 12:19:07;;;;;;;7.80;1.65;;;18.40;99.90;;;;;;5130948;27;20038;-58
2023/07/30 12:21:33;;;;;;;7.00;1.90;;;19.10;99.90;;;;;;5132637;27;20134;-59
2023/07/30 12:23:58;;;;;;;11.93;2.47;;;19.00;99.90;;;;;;5132159;27;20077;-58
2023/07/30 12:26:24;;;;;;;9.55;1.60;;;18.90;99.90;;;;;;5132548;27;20105;-58
2023/07/30 12:28:50;;;;;;;13.18;2.35;;;18.90;99.90;;;;;;5113534;27;20042;-58
2023/07/30 12:31:15;;;;;;;10.90;2.75;;;19.30;99.90;;;;;;5131199;27;20072;-58
2023/07/30 12:33:41;;;;;;;11.32;2.42;;;19.60;99.90;;;;;;5130734;27;20051;-59
2023/07/30 12:36:07;;;;;;;9.90;1.90;;;19.70;99.90;;;;;;5130448;27;20031;-59
2023/07/30 12:38:34;;;;;;;11.63;2.35;;;20.00;99.90;;;;;;5133495;27;20070;-58